Time;durP1;ratioP1;P1;durP2;ratioP2;P2;SDS_P1;SDS_P2;PMS_P1;PMS_P2;Temp;Humidity;BMP_temperature;BMP_pressure;BME280_temperature;BME280_humidity;BME280_pressure;Samples;Min_cycle;Max_cycle;Signal;HPM_P1;HPM_P2
2022/02/28 00:01:56;;;;;;;11.20;6.30;;;;;;;0.46;52.70;98107.98;110049;1249;72296;-61
2022/02/28 00:04:27;;;;;;;11.20;6.70;;;;;;;0.49;52.44;98105.52;110006;1250;68378;-62
2022/02/28 00:06:57;;;;;;;7.40;5.10;;;;;;;0.50;52.05;98103.09;110031;1249;69648;-62
2022/02/28 00:09:29;;;;;;;8.10;5.80;;;;;;;0.54;52.01;98107.32;109994;1249;60539;-62
2022/02/28 00:11:59;;;;;;;7.20;5.10;;;;;;;0.57;51.57;98106.20;109864;1250;60549;-61
2022/02/28 00:14:30;;;;;;;13.40;6.50;;;;;;;0.61;51.53;98101.68;109854;1249;71309;-62
2022/02/28 00:17:00;;;;;;;11.80;6.90;;;;;;;0.58;52.13;98098.64;110024;1249;68650;-65
2022/02/28 00:19:31;;;;;;;9.10;5.80;;;;;;;0.55;52.76;98100.09;110045;1249;69230;-62
2022/02/28 00:22:01;;;;;;;9.00;6.30;;;;;;;0.55;52.60;98099.58;110019;1249;61091;-61
2022/02/28 00:24:34;;;;;;;10.00;6.60;;;;;;;0.52;52.77;98099.83;110081;1249;60562;-63
2022/02/28 00:27:03;;;;;;;8.00;5.50;;;;;;;0.47;53.37;98095.29;110027;1249;72242;-62
2022/02/28 00:29:34;;;;;;;17.50;12.50;;;;;;;0.50;52.54;98095.23;109872;1248;67725;-63
2022/02/28 00:32:05;;;;;;;21.60;15.50;;;;;;;0.57;52.28;98095.24;109792;1250;69428;-64
2022/02/28 00:34:36;;;;;;;16.60;10.40;;;;;;;0.57;52.36;98093.02;109872;1249;60512;-63
2022/02/28 00:37:06;;;;;;;19.20;11.40;;;;;;;0.60;52.10;98090.54;110062;1248;60492;-64
2022/02/28 00:39:38;;;;;;;14.90;10.50;;;;;;;0.60;51.85;98087.79;110065;1249;71559;-62
2022/02/28 00:42:08;;;;;;;18.90;11.30;;;;;;;0.62;51.89;98088.98;109768;1250;67668;-63
2022/02/28 00:44:39;;;;;;;18.10;11.50;;;;;;;0.62;52.12;98083.99;109806;1250;70133;-64
2022/02/28 00:47:09;;;;;;;13.40;9.50;;;;;;;0.59;52.21;98081.12;109835;1250;60568;-61
2022/02/28 00:49:40;;;;;;;15.30;10.50;;;;;;;0.58;52.10;98081.33;109723;1250;60555;-62
2022/02/28 00:52:11;;;;;;;10.20;6.80;;;;;;;0.57;51.89;98077.75;109833;1250;72344;-62
2022/02/28 00:54:42;;;;;;;8.40;6.00;;;;;;;0.57;51.82;98076.38;109819;1250;67632;-62
2022/02/28 00:57:13;;;;;;;13.50;8.00;;;;;;;0.59;51.64;98080.77;109741;1250;67598;-62
2022/02/28 00:59:43;;;;;;;10.00;6.90;;;;;;;0.59;51.80;98079.91;109656;1250;60599;-62
2022/02/28 01:02:14;;;;;;;12.70;7.80;;;;;;;0.60;51.98;98076.14;109988;1249;60547;-61
2022/02/28 01:04:46;;;;;;;14.20;9.30;;;;;;;0.60;52.25;98075.43;109828;1250;71545;-61
2022/02/28 01:07:17;;;;;;;11.80;7.60;;;;;;;0.57;52.50;98073.45;109721;1251;67385;-63
2022/02/28 01:09:47;;;;;;;9.90;7.00;;;;;;;0.55;52.15;98071.60;109855;1249;68610;-63
2022/02/28 01:12:18;;;;;;;10.60;5.80;;;;;;;0.54;52.25;98069.58;109843;1250;60499;-61
2022/02/28 01:14:48;;;;;;;14.90;8.60;;;;;;;0.51;52.42;98066.91;109812;1249;60504;-62
2022/02/28 01:17:18;;;;;;;;;;;;;;;0.47;53.33;98068.01;109991;1248;73083;-63
2022/02/28 01:19:50;;;;;;;10.10;6.10;;;;;;;0.39;54.57;98065.27;109821;1250;67846;-63
2022/02/28 01:22:20;;;;;;;7.70;5.50;;;;;;;0.37;53.57;98065.83;109871;1248;69350;-62
2022/02/28 01:24:51;;;;;;;7.70;4.10;;;;;;;0.36;53.37;98062.25;110030;1249;60537;-64
2022/02/28 01:27:22;;;;;;;6.80;4.80;;;;;;;0.35;53.09;98062.26;109891;1249;60558;-62
2022/02/28 01:29:52;;;;;;;6.40;4.60;;;;;;;0.36;53.46;98057.27;110027;1249;71513;-64
2022/02/28 01:32:22;;;;;;;8.80;5.20;;;;;;;0.35;53.40;98053.86;109865;1250;68598;-61
2022/02/28 01:34:55;;;;;;;11.60;5.70;;;;;;;0.36;53.58;98052.47;109805;1250;68516;-61
2022/02/28 01:37:25;;;;;;;10.40;5.90;;;;;;;0.35;53.51;98052.83;109799;1250;60989;-62
2022/02/28 01:39:56;;;;;;;10.10;5.60;;;;;;;0.35;53.73;98052.14;109976;1248;60464;-62
2022/02/28 01:42:26;;;;;;;12.10;7.10;;;;;;;0.33;54.01;98057.33;109623;1250;71469;-63
2022/02/28 01:44:57;;;;;;;10.60;6.30;;;;;;;0.26;54.56;98058.35;109787;1250;68498;-61
2022/02/28 01:47:27;;;;;;;;;;;;;;;0.23;54.67;98058.59;110028;1250;69513;-63
2022/02/28 01:49:59;;;;;;;10.20;6.10;;;;;;;0.15;55.20;98060.27;110052;1249;60521;-62
2022/02/28 01:52:30;;;;;;;8.20;5.40;;;;;;;0.14;54.58;98060.31;110033;1249;60518;-61
2022/02/28 01:54:59;;;;;;;9.30;6.20;;;;;;;0.11;55.04;98059.02;109903;1248;71592;-62
2022/02/28 01:57:31;;;;;;;11.30;6.30;;;;;;;0.11;55.16;98053.20;109771;1250;68595;-62
2022/02/28 02:00:07;;;;;;;10.30;7.60;;;;;;;0.07;55.97;98051.38;110043;1249;68323;-61
2022/02/28 02:02:42;;;;;;;12.10;7.00;;;;;;;0.03;56.04;98049.05;110003;1250;60570;-62
2022/02/28 02:05:12;;;;;;;9.40;6.20;;;;;;;0.04;55.61;98046.48;109590;1251;60499;-61
2022/02/28 02:07:43;;;;;;;11.30;6.70;;;;;;;0.02;56.43;98044.98;109705;1250;70636;-61
2022/02/28 02:10:14;;;;;;;10.90;7.60;;;;;;;0.00;56.37;98037.30;109828;1249;68808;-61
2022/02/28 02:12:46;;;;;;;13.70;7.30;;;;;;;-0.04;57.02;98031.71;110053;1250;67675;-61
2022/02/28 02:15:18;;;;;;;11.80;7.70;;;;;;;-0.06;57.31;98031.23;110045;1250;60516;-62
2022/02/28 02:17:49;;;;;;;10.10;7.20;;;;;;;-0.06;57.08;98029.72;109724;1250;60524;-62
2022/02/28 02:20:18;;;;;;;;;;;;;;;-0.04;56.68;98029.66;109861;1250;72147;-62
2022/02/28 02:22:59;;;;;;;;;;;;;;;-0.04;56.71;98029.16;109716;1251;68508;-63
2022/02/28 02:25:31;;;;;;;10.20;6.30;;;;;;;-0.06;57.17;98031.94;109620;1251;68638;-63
2022/02/28 02:28:02;;;;;;;13.30;7.10;;;;;;;-0.07;57.62;98032.47;109726;1250;60497;-61
2022/02/28 02:30:33;;;;;;;10.50;7.10;;;;;;;-0.11;59.02;98032.55;109782;1250;60457;-62
2022/02/28 02:33:05;;;;;;;7.90;5.90;;;;;;;-0.14;59.11;98040.52;109749;1250;71390;-62
2022/02/28 02:35:35;;;;;;;;;;;;;;;-0.10;57.75;98037.66;109710;1250;66643;-62
2022/02/28 02:38:06;;;;;;;;;;;;;;;-0.09;58.52;98039.20;109737;1250;68609;-61
2022/02/28 02:40:36;;;;;;;10.20;6.00;;;;;;;-0.06;57.38;98036.73;109620;1250;60540;-62
2022/02/28 02:43:06;;;;;;;9.20;6.10;;;;;;;-0.06;57.66;98030.55;109442;1251;453718;-62
2022/02/28 02:45:36;;;;;;;;;;;;;;;-0.05;57.05;98028.65;109791;1249;71585;-62
2022/02/28 02:48:14;;;;;;;9.80;5.70;;;;;;;-0.05;57.49;98030.36;109773;1250;68619;-66
2022/02/28 02:50:44;;;;;;;13.40;7.50;;;;;;;-0.06;57.22;98030.72;109774;1250;69271;-65
2022/02/28 02:53:14;;;;;;;12.00;7.30;;;;;;;-0.07;57.56;98029.73;110095;1249;60492;-62
2022/02/28 02:55:46;;;;;;;8.10;5.90;;;;;;;-0.06;56.96;98030.05;109786;1250;60500;-62
2022/02/28 02:58:17;;;;;;;8.00;5.40;;;;;;;-0.04;56.80;98028.64;109631;1250;72386;-61
2022/02/28 03:00:51;;;;;;;8.60;5.80;;;;;;;-0.02;56.25;98027.57;109731;1250;68598;-62
2022/02/28 03:03:30;;;;;;;7.50;5.40;;;;;;;0.01;56.07;98025.63;109804;1250;68457;-62
2022/02/28 03:06:02;;;;;;;7.30;5.50;;;;;;;0.04;55.94;98024.36;109554;1250;60550;-63
2022/02/28 03:08:34;;;;;;;8.20;5.40;;;;;;;0.06;56.91;98026.55;109622;1251;60469;-61
2022/02/28 03:11:03;;;;;;;8.40;6.70;;;;;;;0.08;56.45;98026.17;109823;1250;72335;-62
2022/02/28 03:13:36;;;;;;;8.40;5.20;;;;;;;0.08;56.60;98025.98;109686;1250;67833;-62
2022/02/28 03:16:05;;;;;;;9.60;6.50;;;;;;;0.10;56.30;98030.08;109831;1250;69227;-59
2022/02/28 03:18:37;;;;;;;10.30;7.10;;;;;;;0.12;56.59;98032.92;109823;1250;60556;-62
2022/02/28 03:21:07;;;;;;;12.00;9.50;;;;;;;0.13;57.91;98033.06;109845;1250;60521;-64
2022/02/28 03:23:37;;;;;;;6.30;4.90;;;;;;;0.11;58.47;98030.89;109808;1250;71549;-62
2022/02/28 03:26:08;;;;;;;9.30;6.90;;;;;;;0.12;57.14;98026.41;109525;1250;68650;-62
2022/02/28 03:28:40;;;;;;;7.20;4.50;;;;;;;0.11;57.46;98029.70;109825;1250;69726;-63
2022/02/28 03:31:11;;;;;;;7.90;5.40;;;;;;;0.13;56.51;98023.49;109845;1250;60555;-64
2022/02/28 03:33:42;;;;;;;8.00;6.20;;;;;;;0.16;56.66;98024.28;109795;1250;60566;-62
2022/02/28 03:36:13;;;;;;;9.50;7.00;;;;;;;0.19;57.08;98022.84;109751;1250;71733;-62
2022/02/28 03:38:48;;;;;;;7.60;5.30;;;;;;;0.22;57.02;98019.16;109678;1250;67831;-63
2022/02/28 03:41:20;;;;;;;9.80;6.10;;;;;;;0.23;56.82;98020.70;109612;1250;68690;-61
2022/02/28 03:43:50;;;;;;;;;;;;;;;0.24;56.73;98016.91;109838;1250;60511;-61
2022/02/28 03:46:29;;;;;;;9.10;5.70;;;;;;;0.23;56.86;98014.52;109691;1249;60496;-62
2022/02/28 03:49:20;;;;;;;11.20;6.00;;;;;;;0.23;57.10;98012.46;109749;1250;72322;-61
2022/02/28 03:51:58;;;;;;;11.20;6.60;;;;;;;0.20;58.15;98014.42;109749;1250;67852;-63
2022/02/28 03:54:51;;;;;;;10.30;6.90;;;;;;;0.17;57.89;98010.71;109757;1250;68925;-61
2022/02/28 03:57:21;;;;;;;8.00;6.30;;;;;;;0.11;59.35;98011.02;109581;1250;60515;-62
2022/02/28 03:59:51;;;;;;;11.40;7.20;;;;;;;0.06;59.26;98015.59;109732;1250;60557;-61
2022/02/28 04:02:21;;;;;;;9.90;6.10;;;;;;;-0.03;59.89;98015.23;109579;1251;72290;-62
2022/02/28 04:04:50;;;;;;;10.50;8.10;;;;;;;-0.12;61.01;98017.83;109708;1250;68513;-61
2022/02/28 04:07:21;;;;;;;11.70;7.70;;;;;;;-0.13;60.13;98016.13;109806;1250;69208;-60
2022/02/28 04:09:51;;;;;;;11.80;7.60;;;;;;;-0.11;59.91;98019.01;109811;1250;60472;-62
2022/02/28 04:12:21;;;;;;;;;;;;;;;-0.16;61.10;98020.15;109762;1250;60504;-62
2022/02/28 04:14:52;;;;;;;13.40;8.40;;;;;;;-0.19;61.45;98021.23;109816;1250;71696;-62
2022/02/28 04:17:22;;;;;;;12.20;7.80;;;;;;;-0.19;61.83;98025.70;110026;1249;68644;-62
2022/02/28 04:19:52;;;;;;;;;;;;;;;-0.24;62.59;98029.20;110042;1248;69686;-62
2022/02/28 04:22:23;;;;;;;14.40;8.40;;;;;;;-0.27;62.54;98027.39;109809;1249;60512;-63
2022/02/28 04:24:52;;;;;;;10.40;8.00;;;;;;;-0.31;62.69;98030.56;109828;1250;60501;-61
2022/02/28 04:27:23;;;;;;;12.00;9.00;;;;;;;-0.28;61.23;98032.02;109736;1250;71277;-61
2022/02/28 04:29:53;;;;;;;12.60;9.80;;;;;;;-0.22;60.38;98033.29;109712;1250;68434;-61
2022/02/28 04:32:23;;;;;;;17.40;10.80;;;;;;;-0.19;60.46;98037.17;109718;1250;69788;-61
2022/02/28 04:34:58;;;;;;;17.90;11.90;;;;;;;-0.19;60.59;98037.35;109849;1250;60552;-60
2022/02/28 04:37:30;;;;;;;8.20;6.70;;;;;;;-0.19;60.65;98035.95;109797;1250;60481;-62
2022/02/28 04:39:59;;;;;;;14.70;10.80;;;;;;;-0.16;59.59;98038.63;109814;1249;71373;-62
2022/02/28 04:42:31;;;;;;;15.70;9.60;;;;;;;-0.14;59.53;98036.89;109725;1248;68151;-65
2022/02/28 04:45:00;;;;;;;9.70;6.30;;;;;;;-0.16;59.83;98039.48;109775;1250;68472;-62
2022/02/28 04:47:30;;;;;;;12.40;8.70;;;;;;;-0.14;59.46;98040.83;109825;1250;60587;-61
2022/02/28 04:50:18;;;;;;;10.30;7.10;;;;;;;-0.13;59.85;98046.82;109874;1250;60495;-64
2022/02/28 04:52:49;;;;;;;10.40;7.90;;;;;;;-0.10;59.52;98048.81;109666;1250;72379;-65
2022/02/28 04:55:22;;;;;;;33.90;23.20;;;;;;;-0.09;59.84;98054.63;109837;1250;67662;-62
2022/02/28 04:57:55;;;;;;;17.40;10.00;;;;;;;-0.08;59.64;98057.50;109717;1250;68655;-60
2022/02/28 05:00:45;;;;;;;33.00;21.40;;;;;;;-0.09;60.77;98067.98;109787;1250;60553;-61
2022/02/28 05:03:16;;;;;;;36.30;21.50;;;;;;;-0.12;61.21;98073.34;109691;1250;60569;-60
2022/02/28 05:05:49;;;;;;;16.30;11.50;;;;;;;-0.12;60.19;98075.56;109660;1249;71911;-62
2022/02/28 05:08:19;;;;;;;11.80;8.80;;;;;;;-0.13;60.30;98077.33;109754;1250;68102;-61
2022/02/28 05:10:48;;;;;;;11.10;8.70;;;;;;;-0.16;60.37;98078.91;109769;1250;67569;-62
2022/02/28 05:13:19;;;;;;;11.70;8.90;;;;;;;-0.16;60.95;98081.81;109751;1250;59679;-62
2022/02/28 05:15:48;;;;;;;11.40;7.80;;;;;;;-0.14;60.01;98080.41;109835;1250;60579;-61
2022/02/28 05:18:18;;;;;;;12.00;8.10;;;;;;;-0.12;59.91;98083.45;109774;1250;71571;-62
2022/02/28 05:20:48;;;;;;;9.50;7.90;;;;;;;-0.11;60.95;98089.10;109774;1250;67869;-63
2022/02/28 05:23:17;;;;;;;11.60;9.40;;;;;;;-0.11;61.39;98092.18;109731;1250;68725;-63
2022/02/28 05:25:47;;;;;;;19.60;10.60;;;;;;;-0.13;62.27;98091.21;109744;1249;60492;-62
2022/02/28 05:28:38;;;;;;;20.40;12.50;;;;;;;-0.16;62.82;98096.73;109672;1249;60485;-61
2022/02/28 05:31:09;;;;;;;14.90;8.50;;;;;;;-0.18;62.29;98100.70;109757;1250;72306;-61
2022/02/28 05:33:38;;;;;;;19.10;12.70;;;;;;;-0.13;61.05;98098.23;109775;1250;68269;-61
2022/02/28 05:36:09;;;;;;;18.70;11.80;;;;;;;-0.11;62.35;98105.04;109681;1250;69566;-62
2022/02/28 05:38:46;;;;;;;18.50;12.10;;;;;;;-0.11;62.09;98111.89;109819;1250;60555;-61
2022/02/28 05:41:18;;;;;;;33.50;19.40;;;;;;;-0.06;62.46;98116.92;109750;1250;60514;-60
2022/02/28 05:43:52;;;;;;;21.30;12.50;;;;;;;-0.06;63.12;98118.13;109668;1250;73092;-61
2022/02/28 05:46:22;;;;;;;24.20;15.90;;;;;;;-0.02;63.00;98114.11;109529;1249;68997;-62
2022/02/28 05:49:17;;;;;;;24.40;14.50;;;;;;;-0.02;64.44;98111.20;109882;1250;68704;-61
2022/02/28 05:51:52;;;;;;;23.50;14.20;;;;;;;-0.05;64.39;98107.83;109937;1248;60482;-63
2022/02/28 05:54:22;;;;;;;14.30;10.50;;;;;;;-0.01;63.47;98107.75;109958;1250;60555;-62
2022/02/28 05:56:51;;;;;;;8.10;6.60;;;;;;;0.04;61.25;98108.16;109720;1250;71669;-62
2022/02/28 05:59:20;;;;;;;9.70;5.40;;;;;;;0.12;59.10;98107.14;109947;1250;67699;-62
2022/02/28 06:01:50;;;;;;;7.80;4.90;;;;;;;0.27;57.57;98112.48;109795;1250;68643;-61
2022/02/28 06:04:22;;;;;;;6.80;4.20;;;;;;;0.40;57.60;98111.05;109807;1250;60587;-64
2022/02/28 06:06:51;;;;;;;8.30;5.20;;;;;;;0.52;57.22;98113.01;109801;1250;60515;-61
2022/02/28 06:09:21;;;;;;;8.20;4.80;;;;;;;0.56;57.93;98113.45;109882;1250;71591;-62
2022/02/28 06:11:50;;;;;;;6.50;4.60;;;;;;;0.60;58.31;98116.80;109757;1250;67639;-63
2022/02/28 06:14:20;;;;;;;12.10;6.80;;;;;;;0.70;58.21;98124.27;109942;1248;68708;-62
2022/02/28 06:16:50;;;;;;;;;;;;;;;0.78;58.42;98125.81;109837;1250;60561;-61
2022/02/28 06:19:19;;;;;;;6.00;4.80;;;;;;;0.79;59.02;98123.21;110052;1249;60596;-62
2022/02/28 06:21:48;;;;;;;8.70;5.10;;;;;;;0.82;58.40;98128.66;110044;1250;72427;-62
2022/02/28 06:24:20;;;;;;;7.10;4.50;;;;;;;0.85;58.81;98129.79;109700;1250;68592;-60
2022/02/28 06:26:49;;;;;;;6.60;4.90;;;;;;;0.89;58.67;98127.98;109741;1251;69499;-61
2022/02/28 06:29:18;;;;;;;6.10;4.30;;;;;;;0.95;58.69;98126.11;109811;1248;60482;-62
2022/02/28 06:31:48;;;;;;;7.80;4.80;;;;;;;1.04;58.97;98120.27;109802;1250;60529;-62
2022/02/28 06:34:17;;;;;;;11.20;5.10;;;;;;;1.08;58.38;98120.83;109651;1250;73106;-63
2022/02/28 06:36:47;;;;;;;6.00;3.90;;;;;;;1.15;57.35;98118.27;109796;1250;68721;-61
2022/02/28 06:39:16;;;;;;;6.10;4.00;;;;;;;1.27;57.17;98119.54;109843;1250;69489;-60
2022/02/28 06:41:45;;;;;;;5.10;4.00;;;;;;;1.39;56.95;98125.08;109776;1249;60502;-62
2022/02/28 06:44:15;;;;;;;9.10;5.80;;;;;;;1.50;56.37;98126.16;110027;1249;60541;-63
2022/02/28 06:46:52;;;;;;;7.00;5.00;;;;;;;1.61;56.21;98127.63;109672;1249;72442;-64
2022/02/28 06:49:21;;;;;;;5.70;4.00;;;;;;;1.74;56.34;98127.95;110064;1249;68103;-64
2022/02/28 06:51:51;;;;;;;7.40;5.60;;;;;;;1.91;55.60;98131.83;109701;1250;69415;-63
2022/02/28 06:54:21;;;;;;;7.50;6.60;;;;;;;2.08;55.64;98132.91;109815;1250;60528;-63
2022/02/28 06:56:50;;;;;;;11.20;8.20;;;;;;;2.34;55.24;98130.30;110029;1249;60492;-63
2022/02/28 06:59:20;;;;;;;6.40;5.50;;;;;;;2.62;54.89;98128.30;110091;1248;71774;-64
2022/02/28 07:01:49;;;;;;;13.60;7.80;;;;;;;2.87;54.48;98130.47;109761;1250;68628;-64
2022/02/28 07:04:38;;;;;;;7.90;5.40;;;;;;;3.10;53.94;98129.23;109894;1250;68636;-64
2022/02/28 07:07:07;;;;;;;8.70;6.30;;;;;;;3.29;52.44;98128.11;109904;1249;60470;-61
2022/02/28 07:09:37;;;;;;;7.50;5.30;;;;;;;3.42;51.54;98131.64;109923;1248;60491;-62
2022/02/28 07:12:07;;;;;;;7.60;5.90;;;;;;;3.51;50.38;98134.80;109783;1250;71772;-61
2022/02/28 07:14:38;;;;;;;8.00;5.60;;;;;;;3.55;49.66;98135.70;109897;1249;67831;-62
2022/02/28 07:17:07;;;;;;;11.10;7.90;;;;;;;3.58;48.97;98141.11;109724;1250;69490;-61
2022/02/28 07:19:37;;;;;;;9.10;6.10;;;;;;;3.50;47.59;98137.95;109987;1250;60934;-61
2022/02/28 07:22:06;;;;;;;6.10;4.30;;;;;;;3.44;47.88;98136.41;109678;1250;60541;-63
2022/02/28 07:24:35;;;;;;;7.40;5.20;;;;;;;3.46;48.61;98139.43;109780;1249;71713;-62
2022/02/28 07:27:04;;;;;;;7.80;5.60;;;;;;;3.48;48.51;98141.10;109864;1250;68609;-62
2022/02/28 07:29:34;;;;;;;6.80;4.90;;;;;;;3.37;46.40;98138.36;109904;1249;69499;-63
2022/02/28 07:32:04;;;;;;;7.60;5.60;;;;;;;3.42;47.49;98133.53;109760;1250;60548;-62
2022/02/28 07:34:33;;;;;;;9.00;6.60;;;;;;;3.46;47.08;98131.00;109872;1250;60495;-61
2022/02/28 07:37:02;;;;;;;8.50;4.90;;;;;;;3.38;45.77;98130.77;109922;1250;71708;-62
2022/02/28 07:39:32;;;;;;;10.40;5.80;;;;;;;3.44;46.34;98130.36;109925;1249;67788;-61
2022/02/28 07:42:02;;;;;;;10.90;6.90;;;;;;;3.56;46.45;98130.68;109884;1249;68692;-61
2022/02/28 07:44:31;;;;;;;9.10;5.70;;;;;;;3.60;46.93;98131.73;109988;1249;60560;-61
2022/02/28 07:47:01;;;;;;;9.60;5.20;;;;;;;3.75;46.16;98134.16;109936;1249;60939;-62
2022/02/28 07:49:35;;;;;;;11.50;6.70;;;;;;;3.78;44.92;98132.35;109862;1250;71818;-61
2022/02/28 07:52:05;;;;;;;7.30;5.40;;;;;;;3.79;45.44;98134.23;109939;1249;68627;-60
2022/02/28 07:54:34;;;;;;;8.50;5.80;;;;;;;3.89;45.43;98128.87;109850;1250;70000;-62
2022/02/28 07:57:03;;;;;;;7.90;5.00;;;;;;;3.95;45.55;98131.05;109839;1250;60571;-62
2022/02/28 07:59:32;;;;;;;9.40;5.10;;;;;;;4.06;45.20;98129.64;109682;1252;60563;-62
2022/02/28 08:02:01;;;;;;;8.60;5.30;;;;;;;4.21;44.11;98128.45;109922;1249;72396;-64
2022/02/28 08:04:31;;;;;;;5.70;4.60;;;;;;;4.31;43.12;98128.40;109943;1250;68297;-61
2022/02/28 08:07:00;;;;;;;6.70;4.70;;;;;;;4.44;42.82;98128.81;109823;1250;68653;-62
2022/02/28 08:09:31;;;;;;;6.80;5.00;;;;;;;4.49;42.54;98126.89;109893;1250;60543;-62
2022/02/28 08:12:00;;;;;;;6.90;4.70;;;;;;;4.73;42.83;98127.23;109849;1250;60534;-61
2022/02/28 08:14:31;;;;;;;7.70;4.60;;;;;;;5.09;41.75;98125.48;109938;1250;71574;-62
2022/02/28 08:17:00;;;;;;;7.20;5.30;;;;;;;5.45;41.20;98128.53;109788;1250;68619;-63
2022/02/28 08:19:30;;;;;;;6.80;4.60;;;;;;;5.81;40.36;98136.20;109887;1250;69347;-62
2022/02/28 08:21:59;;;;;;;7.10;4.50;;;;;;;6.13;40.21;98138.48;110056;1250;60503;-63
2022/02/28 08:24:28;;;;;;;6.60;4.50;;;;;;;6.27;39.16;98141.36;109660;1250;60585;-63
2022/02/28 08:26:57;;;;;;;8.80;5.60;;;;;;;6.12;38.80;98139.59;110064;1249;71597;-64
2022/02/28 08:29:27;;;;;;;7.30;5.60;;;;;;;5.69;38.91;98136.17;110045;1250;68122;-62
2022/02/28 08:31:56;;;;;;;5.80;4.20;;;;;;;5.51;39.31;98135.17;109610;1250;68875;-61
2022/02/28 08:34:25;;;;;;;6.30;4.50;;;;;;;5.56;39.95;98131.00;109883;1250;60542;-62
2022/02/28 08:36:55;;;;;;;5.20;4.40;;;;;;;5.50;39.45;98133.52;109807;1250;60454;-63
2022/02/28 08:39:24;;;;;;;5.50;4.10;;;;;;;5.42;40.05;98130.88;109905;1250;72174;-60
2022/02/28 08:41:53;;;;;;;6.70;5.60;;;;;;;5.33;40.66;98131.95;109824;1250;68416;-65
2022/02/28 08:44:22;;;;;;;4.70;3.80;;;;;;;5.17;39.87;98134.64;109678;1250;68689;-62
2022/02/28 08:46:52;;;;;;;4.90;3.40;;;;;;;4.97;38.50;98137.36;109748;1249;60554;-62
2022/02/28 08:49:22;;;;;;;6.40;4.10;;;;;;;4.74;38.39;98135.98;109837;1250;60554;-63
2022/02/28 08:51:54;;;;;;;6.00;3.20;;;;;;;4.57;38.04;98139.04;109786;1249;73074;-63
2022/02/28 08:54:23;;;;;;;4.20;3.60;;;;;;;4.31;38.14;98138.26;109922;1249;68582;-61
2022/02/28 08:56:53;;;;;;;4.40;3.30;;;;;;;4.13;38.82;98137.52;109864;1250;68756;-63
2022/02/28 08:59:22;;;;;;;5.10;3.50;;;;;;;4.01;38.75;98138.81;109939;1250;60557;-62
2022/02/28 09:01:51;;;;;;;4.10;3.40;;;;;;;3.95;39.52;98140.04;109883;1250;60418;-61
2022/02/28 09:04:21;;;;;;;6.70;4.40;;;;;;;3.85;40.20;98140.39;109786;1250;72439;-63
2022/02/28 09:06:53;;;;;;;7.90;4.70;;;;;;;3.74;41.25;98144.92;109996;1249;67856;-64
2022/02/28 09:09:26;;;;;;;6.10;4.00;;;;;;;3.62;41.31;98149.09;109776;1250;69525;-62
2022/02/28 09:11:55;;;;;;;4.90;3.30;;;;;;;3.43;41.65;98145.56;109893;1249;60597;-62
2022/02/28 09:14:26;;;;;;;5.30;3.50;;;;;;;3.48;40.68;98151.29;109698;1250;60526;-63
2022/02/28 09:16:55;;;;;;;5.00;3.10;;;;;;;3.17;41.37;98154.16;109958;1249;72597;-62
2022/02/28 09:19:25;;;;;;;4.30;2.60;;;;;;;3.15;41.69;98155.09;109777;1250;67959;-63
2022/02/28 09:21:54;;;;;;;5.40;4.00;;;;;;;3.20;42.26;98157.18;109965;1250;69390;-61
2022/02/28 09:24:24;;;;;;;5.10;3.50;;;;;;;3.24;42.53;98160.65;109692;1249;60630;-61
2022/02/28 09:26:56;;;;;;;5.60;3.60;;;;;;;3.11;41.37;98161.07;109760;1250;60530;-61
2022/02/28 09:29:25;;;;;;;5.30;3.60;;;;;;;3.05;41.98;98163.66;109963;1250;71736;-63
2022/02/28 09:31:54;;;;;;;5.30;3.30;;;;;;;3.00;41.94;98164.16;109956;1250;68780;-65
2022/02/28 09:34:25;;;;;;;5.70;3.50;;;;;;;2.98;41.78;98167.30;109897;1250;68529;-64
2022/02/28 09:36:57;;;;;;;4.90;3.40;;;;;;;3.13;41.80;98174.61;109715;1250;60554;-63
2022/02/28 09:39:27;;;;;;;4.90;3.50;;;;;;;3.31;42.15;98172.65;109918;1250;60457;-62
2022/02/28 09:42:29;;;;;;;5.10;2.90;;;;;;;3.54;41.42;98168.30;109570;1250;72622;-63
2022/02/28 09:45:19;;;;;;;3.60;2.80;;;;;;;3.79;40.48;98172.83;109910;1250;67924;-62
2022/02/28 09:48:10;;;;;;;3.40;2.20;;;;;;;4.01;39.78;98172.09;109942;1250;69610;-63
2022/02/28 09:51:04;;;;;;;4.60;3.20;;;;;;;4.12;39.18;98172.58;109932;1250;60510;-64
2022/02/28 09:54:07;;;;;;;5.00;3.00;;;;;;;4.19;39.42;98173.39;109553;1250;60456;-62
2022/02/28 09:57:00;;;;;;;4.30;2.80;;;;;;;4.24;38.44;98170.60;109851;1250;72013;-63
2022/02/28 09:59:52;;;;;;;4.40;2.40;;;;;;;4.42;38.23;98173.94;110004;1249;68403;-62
2022/02/28 10:02:22;;;;;;;3.80;2.60;;;;;;;4.51;38.45;98174.96;109781;1249;68485;-62
2022/02/28 10:04:53;;;;;;;3.60;2.40;;;;;;;4.62;38.92;98172.70;109632;1251;60495;-64
2022/02/28 10:07:25;;;;;;;3.50;2.20;;;;;;;4.68;38.48;98175.59;109847;1250;60409;-62
2022/02/28 10:10:15;;;;;;;4.80;3.10;;;;;;;4.52;38.03;98177.52;109798;1250;72942;-64
2022/02/28 10:12:45;;;;;;;5.20;3.40;;;;;;;4.45;38.50;98175.52;109788;1250;68572;-62
2022/02/28 10:15:17;;;;;;;5.00;3.70;;;;;;;4.55;38.62;98173.60;109842;1250;69713;-64
2022/02/28 10:17:48;;;;;;;5.30;4.10;;;;;;;4.59;38.01;98173.13;109807;1250;60497;-64
2022/02/28 10:20:24;;;;;;;5.10;2.60;;;;;;;4.50;37.93;98167.92;109854;1249;60505;-63
2022/02/28 10:23:01;;;;;;;3.30;2.30;;;;;;;4.48;36.93;98173.54;109809;1250;72365;-62
2022/02/28 10:25:41;;;;;;;3.90;2.50;;;;;;;4.18;37.75;98169.26;109528;1251;68791;-62
2022/02/28 10:28:38;;;;;;;5.60;2.80;;;;;;;4.29;37.68;98168.52;109821;1250;68990;-64
2022/02/28 10:31:38;;;;;;;3.30;2.20;;;;;;;4.26;37.63;98166.39;109809;1250;60516;-63
2022/02/28 10:38:16;;;;;;;7.50;4.00;;;;;;;4.25;37.60;98169.34;110061;1248;71543;-61
2022/02/28 10:40:50;;;;;;;5.50;3.30;;;;;;;4.45;37.13;98168.65;110002;1249;68045;-62
2022/02/28 10:43:35;;;;;;;4.80;4.10;;;;;;;4.29;37.35;98171.45;109846;1249;68906;-63
2022/02/28 10:46:17;;;;;;;4.60;3.20;;;;;;;4.14;37.45;98175.63;110026;1250;60543;-63
2022/02/28 10:49:07;;;;;;;4.40;3.30;;;;;;;3.89;37.38;98178.03;109775;1250;60481;-63
2022/02/28 10:51:56;;;;;;;4.30;3.40;;;;;;;3.81;37.37;98175.54;109818;1250;71969;-62
2022/02/28 10:54:28;;;;;;;4.30;3.10;;;;;;;3.87;37.43;98172.92;110041;1249;67794;-64
2022/02/28 10:57:03;;;;;;;5.90;2.80;;;;;;;3.84;36.70;98167.81;109704;1250;67661;-63
2022/02/28 10:59:40;;;;;;;5.30;3.90;;;;;;;4.06;36.79;98172.40;109756;1250;60535;-62
2022/02/28 11:02:21;;;;;;;5.00;2.80;;;;;;;4.60;36.12;98165.33;109809;1250;60546;-65
2022/02/28 11:05:07;;;;;;;5.80;3.80;;;;;;;5.74;35.04;98166.58;109692;1250;71772;-65
2022/02/28 11:07:42;;;;;;;5.50;3.50;;;;;;;6.91;32.62;98159.74;109917;1250;68092;-62
2022/02/28 11:10:12;;;;;;;3.50;2.60;;;;;;;7.12;32.33;98155.67;109808;1250;67613;-63
2022/02/28 11:12:43;;;;;;;4.60;3.00;;;;;;;7.47;31.90;98158.35;109745;1251;60509;-64
2022/02/28 11:15:19;;;;;;;5.00;3.20;;;;;;;8.20;31.10;98157.80;109857;1250;60547;-65
2022/02/28 11:17:52;;;;;;;3.70;2.70;;;;;;;8.95;29.51;98151.63;109796;1249;71572;-62
2022/02/28 11:20:21;;;;;;;5.90;4.30;;;;;;;9.44;28.74;98154.47;109777;1251;68639;-62
2022/02/28 11:22:51;;;;;;;3.40;2.90;;;;;;;8.91;28.42;98158.96;109825;1250;68726;-63
2022/02/28 11:25:21;;;;;;;3.90;2.40;;;;;;;8.86;29.02;98159.59;110009;1249;60569;-64
2022/02/28 11:27:51;;;;;;;4.00;2.60;;;;;;;8.92;29.05;98156.35;109593;1249;60553;-62
2022/02/28 11:30:23;;;;;;;4.00;3.50;;;;;;;8.52;30.12;98161.58;109728;1250;72965;-61
2022/02/28 11:32:56;;;;;;;4.00;2.90;;;;;;;8.38;29.82;98163.52;109629;1251;68651;-64
2022/02/28 11:35:53;;;;;;;5.30;3.40;;;;;;;8.40;29.58;98161.00;109729;1250;68666;-64
2022/02/28 11:38:28;;;;;;;4.00;2.70;;;;;;;8.96;28.76;98156.27;109722;1250;60554;-62
2022/02/28 11:41:05;;;;;;;3.40;2.70;;;;;;;9.41;27.78;98158.98;109612;1250;60442;-63
2022/02/28 11:43:44;;;;;;;2.70;2.40;;;;;;;9.86;26.80;98164.42;109642;1250;72279;-63
2022/02/28 11:46:21;;;;;;;4.60;2.60;;;;;;;9.06;27.49;98160.55;109804;1250;68430;-62
2022/02/28 11:48:55;;;;;;;3.80;2.60;;;;;;;8.17;28.76;98162.67;109735;1250;68682;-63
2022/02/28 11:51:38;;;;;;;4.90;3.60;;;;;;;8.50;29.13;98168.63;109694;1250;60578;-64
2022/02/28 11:54:17;;;;;;;3.40;2.50;;;;;;;8.92;27.69;98168.15;109777;1250;60510;-63
2022/02/28 11:56:49;;;;;;;2.50;2.00;;;;;;;8.68;27.78;98169.22;109807;1250;72376;-64
2022/02/28 11:59:22;;;;;;;4.20;3.40;;;;;;;8.50;27.95;98171.08;109815;1250;67858;-65
2022/02/28 12:01:57;;;;;;;3.90;2.90;;;;;;;8.13;29.17;98177.98;109645;1251;68709;-62